sensor_id;sensor_type;location;lat;lon;timestamp;temperature;humidity
19389;DHT22;9830;41.876;23.474;2023-10-09T00:02:06;16.40;99.90
19389;DHT22;9830;41.876;23.474;2023-10-09T00:04:32;16.40;99.90
19389;DHT22;9830;41.876;23.474;2023-10-09T00:07:02;16.30;99.90
19389;DHT22;9830;41.876;23.474;2023-10-09T00:09:28;16.30;99.90
19389;DHT22;9830;41.876;23.474;2023-10-09T00:11:58;16.20;99.90
19389;DHT22;9830;41.876;23.474;2023-10-09T00:14:29;16.20;99.90
19389;DHT22;9830;41.876;23.474;2023-10-09T00:16:56;16.20;99.90
19389;DHT22;9830;41.876;23.474;2023-10-09T00:19:42;16.20;99.90
19389;DHT22;9830;41.876;23.474;2023-10-09T00:22:09;16.30;99.90
19389;DHT22;9830;41.876;23.474;2023-10-09T00:24:44;16.30;99.90
19389;DHT22;9830;41.876;23.474;2023-10-09T00:27:11;16.20;99.90
19389;DHT22;9830;41.876;23.474;2023-10-09T00:29:41;16.20;99.90
19389;DHT22;9830;41.876;23.474;2023-10-09T00:32:15;16.20;99.90
19389;DHT22;9830;41.876;23.474;2023-10-09T00:34:58;16.10;99.90
19389;DHT22;9830;41.876;23.474;2023-10-09T00:37:39;16.10;99.90
19389;DHT22;9830;41.876;23.474;2023-10-09T00:40:06;16.00;99.90
19389;DHT22;9830;41.876;23.474;2023-10-09T00:42:45;16.00;99.90
19389;DHT22;9830;41.876;23.474;2023-10-09T00:45:11;15.90;99.90
19389;DHT22;9830;41.876;23.474;2023-10-09T00:47:42;15.90;99.90
19389;DHT22;9830;41.876;23.474;2023-10-09T00:50:09;15.90;99.90
19389;DHT22;9830;41.876;23.474;2023-10-09T00:52:44;15.90;99.90
19389;DHT22;9830;41.876;23.474;2023-10-09T00:55:19;15.80;99.90
19389;DHT22;9830;41.876;23.474;2023-10-09T00:58:05;15.70;99.90
19389;DHT22;9830;41.876;23.474;2023-10-09T01:00:38;15.70;99.90
19389;DHT22;9830;41.876;23.474;2023-10-09T01:03:16;15.70;99.90
19389;DHT22;9830;41.876;23.474;2023-10-09T01:05:45;15.70;99.90
19389;DHT22;9830;41.876;23.474;2023-10-09T01:08:31;15.60;99.90
19389;DHT22;9830;41.876;23.474;2023-10-09T01:11:15;15.60;99.90
19389;DHT22;9830;41.876;23.474;2023-10-09T01:13:46;15.50;99.90
19389;DHT22;9830;41.876;23.474;2023-10-09T01:16:12;15.50;99.90
19389;DHT22;9830;41.876;23.474;2023-10-09T01:18:47;15.50;99.90
19389;DHT22;9830;41.876;23.474;2023-10-09T01:21:20;15.50;99.90
19389;DHT22;9830;41.876;23.474;2023-10-09T01:23:50;15.40;99.90
19389;DHT22;9830;41.876;23.474;2023-10-09T01:26:36;15.40;99.90
19389;DHT22;9830;41.876;23.474;2023-10-09T01:29:08;15.40;99.90
19389;DHT22;9830;41.876;23.474;2023-10-09T01:31:51;15.40;99.90
19389;DHT22;9830;41.876;23.474;2023-10-09T01:36:53;15.30;99.90
19389;DHT22;9830;41.876;23.474;2023-10-09T01:39:24;15.30;99.90
19389;DHT22;9830;41.876;23.474;2023-10-09T01:41:53;15.20;99.90
19389;DHT22;9830;41.876;23.474;2023-10-09T01:44:31;15.20;99.90
19389;DHT22;9830;41.876;23.474;2023-10-09T01:47:04;15.20;99.90
19389;DHT22;9830;41.876;23.474;2023-10-09T01:49:34;15.10;99.90
19389;DHT22;9830;41.876;23.474;2023-10-09T01:52:02;15.10;99.90
19389;DHT22;9830;41.876;23.474;2023-10-09T01:54:36;15.10;99.90
19389;DHT22;9830;41.876;23.474;2023-10-09T01:57:08;15.10;99.90
19389;DHT22;9830;41.876;23.474;2023-10-09T01:59:42;15.00;99.90
19389;DHT22;9830;41.876;23.474;2023-10-09T02:02:14;15.00;99.90
19389;DHT22;9830;41.876;23.474;2023-10-09T02:05:02;14.90;99.90
19389;DHT22;9830;41.876;23.474;2023-10-09T02:07:33;14.90;99.90
19389;DHT22;9830;41.876;23.474;2023-10-09T02:10:07;14.90;99.90
19389;DHT22;9830;41.876;23.474;2023-10-09T02:12:50;14.80;99.90
19389;DHT22;9830;41.876;23.474;2023-10-09T02:15:31;14.80;99.90
19389;DHT22;9830;41.876;23.474;2023-10-09T02:18:16;14.70;99.90
19389;DHT22;9830;41.876;23.474;2023-10-09T02:20:48;14.80;99.90
19389;DHT22;9830;41.876;23.474;2023-10-09T02:23:30;14.70;99.90
19389;DHT22;9830;41.876;23.474;2023-10-09T02:26:04;14.60;99.90
19389;DHT22;9830;41.876;23.474;2023-10-09T02:28:32;14.50;99.90
19389;DHT22;9830;41.876;23.474;2023-10-09T02:30:58;14.60;99.90
19389;DHT22;9830;41.876;23.474;2023-10-09T02:33:28;14.50;99.90
19389;DHT22;9830;41.876;23.474;2023-10-09T02:35:54;14.50;99.90
19389;DHT22;9830;41.876;23.474;2023-10-09T02:38:20;14.50;99.90
19389;DHT22;9830;41.876;23.474;2023-10-09T02:40:52;14.50;99.90
19389;DHT22;9830;41.876;23.474;2023-10-09T02:43:31;14.50;99.90
19389;DHT22;9830;41.876;23.474;2023-10-09T02:46:01;14.50;99.90
19389;DHT22;9830;41.876;23.474;2023-10-09T02:48:39;14.50;99.90
19389;DHT22;9830;41.876;23.474;2023-10-09T02:51:11;14.40;99.90
19389;DHT22;9830;41.876;23.474;2023-10-09T02:54:01;14.40;99.90
19389;DHT22;9830;41.876;23.474;2023-10-09T02:57:01;14.40;99.90
19389;DHT22;9830;41.876;23.474;2023-10-09T02:59:34;14.40;99.90
19389;DHT22;9830;41.876;23.474;2023-10-09T03:02:00;14.30;99.90
19389;DHT22;9830;41.876;23.474;2023-10-09T03:04:26;14.20;99.90
19389;DHT22;9830;41.876;23.474;2023-10-09T03:06:57;14.20;99.90
19389;DHT22;9830;41.876;23.474;2023-10-09T03:09:23;14.20;99.90
19389;DHT22;9830;41.876;23.474;2023-10-09T03:11:54;14.10;99.90
19389;DHT22;9830;41.876;23.474;2023-10-09T03:14:21;14.10;99.90
19389;DHT22;9830;41.876;23.474;2023-10-09T03:16:52;14.10;99.90
19389;DHT22;9830;41.876;23.474;2023-10-09T03:19:17;14.10;99.90
19389;DHT22;9830;41.876;23.474;2023-10-09T03:21:43;14.10;99.90
19389;DHT22;9830;41.876;23.474;2023-10-09T03:24:09;14.10;99.90
19389;DHT22;9830;41.876;23.474;2023-10-09T03:26:37;14.00;99.90
19389;DHT22;9830;41.876;23.474;2023-10-09T03:29:03;14.00;99.90
19389;DHT22;9830;41.876;23.474;2023-10-09T03:31:35;14.00;99.90
19389;DHT22;9830;41.876;23.474;2023-10-09T03:34:02;14.00;99.90
19389;DHT22;9830;41.876;23.474;2023-10-09T03:36:28;14.00;99.90
19389;DHT22;9830;41.876;23.474;2023-10-09T03:38:56;14.00;99.90
19389;DHT22;9830;41.876;23.474;2023-10-09T03:41:24;14.00;99.90
19389;DHT22;9830;41.876;23.474;2023-10-09T03:43:52;13.90;99.90
19389;DHT22;9830;41.876;23.474;2023-10-09T03:46:20;13.80;99.90
19389;DHT22;9830;41.876;23.474;2023-10-09T03:48:50;13.80;99.90
19389;DHT22;9830;41.876;23.474;2023-10-09T03:51:18;13.80;99.90
19389;DHT22;9830;41.876;23.474;2023-10-09T03:53:51;13.80;99.90
19389;DHT22;9830;41.876;23.474;2023-10-09T03:56:18;13.80;99.90
19389;DHT22;9830;41.876;23.474;2023-10-09T03:58:48;13.70;99.90
19389;DHT22;9830;41.876;23.474;2023-10-09T04:01:23;13.70;99.90
19389;DHT22;9830;41.876;23.474;2023-10-09T04:03:53;13.70;99.90
19389;DHT22;9830;41.876;23.474;2023-10-09T04:06:30;13.70;99.90
19389;DHT22;9830;41.876;23.474;2023-10-09T04:11:44;13.60;99.90
19389;DHT22;9830;41.876;23.474;2023-10-09T04:14:12;13.50;99.90
19389;DHT22;9830;41.876;23.474;2023-10-09T04:16:49;13.50;99.90
19389;DHT22;9830;41.876;23.474;2023-10-09T04:19:21;13.40;99.90
19389;DHT22;9830;41.876;23.474;2023-10-09T04:21:50;13.40;99.90
19389;DHT22;9830;41.876;23.474;2023-10-09T04:24:21;13.30;99.90
19389;DHT22;9830;41.876;23.474;2023-10-09T04:26:46;13.30;99.90
19389;DHT22;9830;41.876;23.474;2023-10-09T04:29:16;13.30;99.90
19389;DHT22;9830;41.876;23.474;2023-10-09T04:32:03;13.30;99.90
19389;DHT22;9830;41.876;23.474;2023-10-09T04:34:33;13.30;99.90
19389;DHT22;9830;41.876;23.474;2023-10-09T04:37:03;13.20;99.90
19389;DHT22;9830;41.876;23.474;2023-10-09T04:39:44;13.20;99.90
19389;DHT22;9830;41.876;23.474;2023-10-09T04:42:14;13.20;99.90
19389;DHT22;9830;41.876;23.474;2023-10-09T04:44:49;13.20;99.90
19389;DHT22;9830;41.876;23.474;2023-10-09T04:47:31;13.20;99.90
19389;DHT22;9830;41.876;23.474;2023-10-09T04:50:09;13.20;99.90
19389;DHT22;9830;41.876;23.474;2023-10-09T04:53:04;13.20;99.90
19389;DHT22;9830;41.876;23.474;2023-10-09T04:55:42;13.20;99.90
19389;DHT22;9830;41.876;23.474;2023-10-09T04:58:20;13.60;99.90
19389;DHT22;9830;41.876;23.474;2023-10-09T05:00:50;14.30;99.90
19389;DHT22;9830;41.876;23.474;2023-10-09T05:03:24;15.10;99.90
19389;DHT22;9830;41.876;23.474;2023-10-09T05:05:53;15.70;97.20
19389;DHT22;9830;41.876;23.474;2023-10-09T05:08:28;16.20;93.80
19389;DHT22;9830;41.876;23.474;2023-10-09T05:10:55;16.50;91.10
19389;DHT22;9830;41.876;23.474;2023-10-09T05:13:31;17.10;85.70
19389;DHT22;9830;41.876;23.474;2023-10-09T05:16:18;17.80;78.20
19389;DHT22;9830;41.876;23.474;2023-10-09T05:18:49;17.90;73.00
19389;DHT22;9830;41.876;23.474;2023-10-09T05:21:36;17.30;76.30
19389;DHT22;9830;41.876;23.474;2023-10-09T05:24:03;17.80;73.20
19389;DHT22;9830;41.876;23.474;2023-10-09T05:26:55;18.60;68.10
19389;DHT22;9830;41.876;23.474;2023-10-09T05:29:41;19.00;64.70
19389;DHT22;9830;41.876;23.474;2023-10-09T05:32:25;19.70;60.60
19389;DHT22;9830;41.876;23.474;2023-10-09T05:34:55;20.40;57.00
19389;DHT22;9830;41.876;23.474;2023-10-09T05:37:31;21.00;54.20
19389;DHT22;9830;41.876;23.474;2023-10-09T05:40:05;21.90;52.50
19389;DHT22;9830;41.876;23.474;2023-10-09T05:42:43;22.40;49.70
19389;DHT22;9830;41.876;23.474;2023-10-09T05:45:11;22.40;50.50
19389;DHT22;9830;41.876;23.474;2023-10-09T05:47:48;22.90;48.60
19389;DHT22;9830;41.876;23.474;2023-10-09T05:50:29;23.30;47.30
19389;DHT22;9830;41.876;23.474;2023-10-09T05:52:58;23.40;46.00
19389;DHT22;9830;41.876;23.474;2023-10-09T05:55:28;23.90;45.50
19389;DHT22;9830;41.876;23.474;2023-10-09T05:58:12;23.60;45.10
19389;DHT22;9830;41.876;23.474;2023-10-09T06:00:56;23.70;45.50
19389;DHT22;9830;41.876;23.474;2023-10-09T06:03:51;24.20;45.20
19389;DHT22;9830;41.876;23.474;2023-10-09T06:06:23;24.80;42.90
19389;DHT22;9830;41.876;23.474;2023-10-09T06:09:08;25.00;42.60
19389;DHT22;9830;41.876;23.474;2023-10-09T06:11:43;25.60;41.80
19389;DHT22;9830;41.876;23.474;2023-10-09T06:14:23;25.70;41.50
19389;DHT22;9830;41.876;23.474;2023-10-09T06:17:11;26.20;39.90
19389;DHT22;9830;41.876;23.474;2023-10-09T06:20:04;25.70;40.60
19389;DHT22;9830;41.876;23.474;2023-10-09T06:22:50;25.50;41.30
19389;DHT22;9830;41.876;23.474;2023-10-09T06:25:29;25.30;41.00
19389;DHT22;9830;41.876;23.474;2023-10-09T06:27:58;25.50;40.90
19389;DHT22;9830;41.876;23.474;2023-10-09T06:30:24;25.30;41.20
19389;DHT22;9830;41.876;23.474;2023-10-09T06:32:51;25.10;41.90
19389;DHT22;9830;41.876;23.474;2023-10-09T06:35:17;25.20;41.80
19389;DHT22;9830;41.876;23.474;2023-10-09T06:37:56;25.30;41.80
19389;DHT22;9830;41.876;23.474;2023-10-09T06:43:16;25.70;40.70
19389;DHT22;9830;41.876;23.474;2023-10-09T06:45:51;25.40;41.60
19389;DHT22;9830;41.876;23.474;2023-10-09T09:18:59;27.30;32.30
19389;DHT22;9830;41.876;23.474;2023-10-09T09:21:58;27.10;31.10
19389;DHT22;9830;41.876;23.474;2023-10-09T09:24:37;27.10;32.40
19389;DHT22;9830;41.876;23.474;2023-10-09T09:27:03;27.20;31.70
19389;DHT22;9830;41.876;23.474;2023-10-09T09:32:13;27.60;30.60
19389;DHT22;9830;41.876;23.474;2023-10-09T09:34:52;27.70;30.80
19389;DHT22;9830;41.876;23.474;2023-10-09T09:37:28;28.10;30.40
19389;DHT22;9830;41.876;23.474;2023-10-09T09:42:43;27.20;30.10
19389;DHT22;9830;41.876;23.474;2023-10-09T09:45:14;27.10;30.60
19389;DHT22;9830;41.876;23.474;2023-10-09T09:47:45;27.00;30.80
19389;DHT22;9830;41.876;23.474;2023-10-09T09:50:18;27.00;30.40
19389;DHT22;9830;41.876;23.474;2023-10-09T09:52:55;26.90;30.40
19389;DHT22;9830;41.876;23.474;2023-10-09T09:55:26;27.40;30.40
19389;DHT22;9830;41.876;23.474;2023-10-09T09:57:58;27.40;30.20
19389;DHT22;9830;41.876;23.474;2023-10-09T10:00:28;26.70;30.70
19389;DHT22;9830;41.876;23.474;2023-10-09T10:06:09;26.60;31.30
19389;DHT22;9830;41.876;23.474;2023-10-09T10:08:37;26.50;31.30
19389;DHT22;9830;41.876;23.474;2023-10-09T10:11:05;26.50;30.80
19389;DHT22;9830;41.876;23.474;2023-10-09T10:16:10;26.30;30.80
19389;DHT22;9830;41.876;23.474;2023-10-09T10:18:58;26.30;31.50
19389;DHT22;9830;41.876;23.474;2023-10-09T10:21:37;25.70;31.50
19389;DHT22;9830;41.876;23.474;2023-10-09T10:29:44;26.10;31.20
19389;DHT22;9830;41.876;23.474;2023-10-09T10:32:15;26.10;32.20
19389;DHT22;9830;41.876;23.474;2023-10-09T10:37:36;25.30;32.20
19389;DHT22;9830;41.876;23.474;2023-10-09T10:40:09;24.30;33.10
19389;DHT22;9830;41.876;23.474;2023-10-09T10:43:03;24.10;33.80
19389;DHT22;9830;41.876;23.474;2023-10-09T10:45:39;23.90;34.20
19389;DHT22;9830;41.876;23.474;2023-10-09T10:48:11;23.60;34.50
19389;DHT22;9830;41.876;23.474;2023-10-09T10:51:05;23.50;35.10
19389;DHT22;9830;41.876;23.474;2023-10-09T10:53:32;23.70;35.70
19389;DHT22;9830;41.876;23.474;2023-10-09T10:56:13;23.80;32.70
19389;DHT22;9830;41.876;23.474;2023-10-09T10:58:42;23.90;34.20
19389;DHT22;9830;41.876;23.474;2023-10-09T11:01:21;23.90;32.30
19389;DHT22;9830;41.876;23.474;2023-10-09T11:03:51;24.10;31.80
19389;DHT22;9830;41.876;23.474;2023-10-09T11:06:29;24.00;32.20
19389;DHT22;9830;41.876;23.474;2023-10-09T11:09:06;24.10;32.50
19389;DHT22;9830;41.876;23.474;2023-10-09T11:11:50;24.00;31.40
19389;DHT22;9830;41.876;23.474;2023-10-09T11:14:21;23.90;32.10
19389;DHT22;9830;41.876;23.474;2023-10-09T11:16:52;23.80;32.40
19389;DHT22;9830;41.876;23.474;2023-10-09T11:19:23;23.80;32.30
19389;DHT22;9830;41.876;23.474;2023-10-09T11:21:55;23.90;31.10
19389;DHT22;9830;41.876;23.474;2023-10-09T11:24:47;23.30;31.90
19389;DHT22;9830;41.876;23.474;2023-10-09T11:27:25;23.20;32.60
19389;DHT22;9830;41.876;23.474;2023-10-09T11:29:54;23.20;33.90
19389;DHT22;9830;41.876;23.474;2023-10-09T11:32:21;23.00;32.40
19389;DHT22;9830;41.876;23.474;2023-10-09T11:35:09;22.80;31.70
19389;DHT22;9830;41.876;23.474;2023-10-09T11:37:35;22.40;32.20
19389;DHT22;9830;41.876;23.474;2023-10-09T11:40:33;22.60;32.90
19389;DHT22;9830;41.876;23.474;2023-10-09T11:43:34;22.80;32.20
19389;DHT22;9830;41.876;23.474;2023-10-09T11:46:20;23.00;31.00
19389;DHT22;9830;41.876;23.474;2023-10-09T11:49:06;22.80;31.10
19389;DHT22;9830;41.876;23.474;2023-10-09T11:51:41;22.50;31.20
19389;DHT22;9830;41.876;23.474;2023-10-09T11:54:33;22.60;31.50
19389;DHT22;9830;41.876;23.474;2023-10-09T11:56:59;22.40;30.40
19389;DHT22;9830;41.876;23.474;2023-10-09T11:59:32;22.40;31.60
19389;DHT22;9830;41.876;23.474;2023-10-09T12:02:05;22.40;31.20
19389;DHT22;9830;41.876;23.474;2023-10-09T12:04:30;22.20;31.00
19389;DHT22;9830;41.876;23.474;2023-10-09T12:06:57;22.20;30.20
19389;DHT22;9830;41.876;23.474;2023-10-09T12:09:39;22.20;30.60
19389;DHT22;9830;41.876;23.474;2023-10-09T12:12:07;22.10;29.90
19389;DHT22;9830;41.876;23.474;2023-10-09T12:14:33;22.00;30.00
19389;DHT22;9830;41.876;23.474;2023-10-09T12:17:08;21.80;30.00
19389;DHT22;9830;41.876;23.474;2023-10-09T12:19:38;21.90;30.70
19389;DHT22;9830;41.876;23.474;2023-10-09T12:22:08;21.60;29.30
19389;DHT22;9830;41.876;23.474;2023-10-09T12:24:42;21.80;30.10
19389;DHT22;9830;41.876;23.474;2023-10-09T12:27:11;21.80;29.60
19389;DHT22;9830;41.876;23.474;2023-10-09T12:29:37;21.90;29.50
19389;DHT22;9830;41.876;23.474;2023-10-09T12:32:03;21.90;30.10
19389;DHT22;9830;41.876;23.474;2023-10-09T12:34:29;21.90;29.30
19389;DHT22;9830;41.876;23.474;2023-10-09T12:36:59;21.90;29.30
19389;DHT22;9830;41.876;23.474;2023-10-09T12:39:27;21.60;29.00
19389;DHT22;9830;41.876;23.474;2023-10-09T12:41:59;21.40;29.30
19389;DHT22;9830;41.876;23.474;2023-10-09T12:44:35;21.40;28.80
19389;DHT22;9830;41.876;23.474;2023-10-09T12:47:08;21.40;28.90
19389;DHT22;9830;41.876;23.474;2023-10-09T12:49:37;21.40;29.10
19389;DHT22;9830;41.876;23.474;2023-10-09T12:52:09;21.50;29.50
19389;DHT22;9830;41.876;23.474;2023-10-09T12:54:44;21.40;29.70
19389;DHT22;9830;41.876;23.474;2023-10-09T12:57:12;21.40;29.70
19389;DHT22;9830;41.876;23.474;2023-10-09T12:59:40;21.30;29.50
19389;DHT22;9830;41.876;23.474;2023-10-09T13:02:12;21.00;28.90
19389;DHT22;9830;41.876;23.474;2023-10-09T13:04:38;21.00;28.90
19389;DHT22;9830;41.876;23.474;2023-10-09T13:07:07;21.10;28.90
19389;DHT22;9830;41.876;23.474;2023-10-09T13:09:33;20.80;28.00
19389;DHT22;9830;41.876;23.474;2023-10-09T13:12:11;20.90;28.20
19389;DHT22;9830;41.876;23.474;2023-10-09T13:14:43;20.70;27.50
19389;DHT22;9830;41.876;23.474;2023-10-09T13:17:10;20.60;27.40
19389;DHT22;9830;41.876;23.474;2023-10-09T13:19:36;20.70;27.00
19389;DHT22;9830;41.876;23.474;2023-10-09T13:22:02;20.40;26.60
19389;DHT22;9830;41.876;23.474;2023-10-09T13:24:29;20.40;26.40
19389;DHT22;9830;41.876;23.474;2023-10-09T13:26:56;20.30;26.50
19389;DHT22;9830;41.876;23.474;2023-10-09T13:29:24;20.30;26.50
19389;DHT22;9830;41.876;23.474;2023-10-09T13:31:51;20.30;26.50
19389;DHT22;9830;41.876;23.474;2023-10-09T13:34:23;20.30;26.40
19389;DHT22;9830;41.876;23.474;2023-10-09T13:36:53;20.40;26.90
19389;DHT22;9830;41.876;23.474;2023-10-09T13:39:21;20.40;27.50
19389;DHT22;9830;41.876;23.474;2023-10-09T13:41:54;20.20;27.50
19389;DHT22;9830;41.876;23.474;2023-10-09T13:44:33;20.10;27.30
19389;DHT22;9830;41.876;23.474;2023-10-09T13:47:04;20.10;27.30
19389;DHT22;9830;41.876;23.474;2023-10-09T13:49:44;20.10;27.40
19389;DHT22;9830;41.876;23.474;2023-10-09T13:52:10;20.10;28.20
19389;DHT22;9830;41.876;23.474;2023-10-09T13:54:43;20.10;27.90
19389;DHT22;9830;41.876;23.474;2023-10-09T13:57:14;20.10;27.20
19389;DHT22;9830;41.876;23.474;2023-10-09T13:59:41;20.20;27.80
19389;DHT22;9830;41.876;23.474;2023-10-09T14:02:17;20.10;27.70
19389;DHT22;9830;41.876;23.474;2023-10-09T14:04:45;20.00;27.20
19389;DHT22;9830;41.876;23.474;2023-10-09T14:07:12;20.00;27.90
19389;DHT22;9830;41.876;23.474;2023-10-09T14:09:42;19.90;27.60
19389;DHT22;9830;41.876;23.474;2023-10-09T14:12:21;19.80;27.80
19389;DHT22;9830;41.876;23.474;2023-10-09T14:14:55;19.90;28.30
19389;DHT22;9830;41.876;23.474;2023-10-09T14:17:22;19.90;28.00
19389;DHT22;9830;41.876;23.474;2023-10-09T14:19:54;19.80;27.50
19389;DHT22;9830;41.876;23.474;2023-10-09T14:22:21;19.80;28.00
19389;DHT22;9830;41.876;23.474;2023-10-09T14:24:50;19.70;27.20
19389;DHT22;9830;41.876;23.474;2023-10-09T14:27:24;19.70;27.10
19389;DHT22;9830;41.876;23.474;2023-10-09T14:29:53;19.70;27.50
19389;DHT22;9830;41.876;23.474;2023-10-09T14:32:24;19.70;27.70
19389;DHT22;9830;41.876;23.474;2023-10-09T14:34:59;19.70;27.90
19389;DHT22;9830;41.876;23.474;2023-10-09T14:37:28;19.70;28.50
19389;DHT22;9830;41.876;23.474;2023-10-09T14:39:56;19.60;28.40
19389;DHT22;9830;41.876;23.474;2023-10-09T14:42:21;19.50;28.30
19389;DHT22;9830;41.876;23.474;2023-10-09T14:44:49;19.40;28.90
19389;DHT22;9830;41.876;23.474;2023-10-09T14:47:15;19.30;28.70
19389;DHT22;9830;41.876;23.474;2023-10-09T14:49:41;19.30;28.50
19389;DHT22;9830;41.876;23.474;2023-10-09T14:52:10;19.20;29.10
19389;DHT22;9830;41.876;23.474;2023-10-09T14:54:36;19.10;29.10
19389;DHT22;9830;41.876;23.474;2023-10-09T14:57:03;19.10;29.80
19389;DHT22;9830;41.876;23.474;2023-10-09T14:59:34;18.90;30.30
19389;DHT22;9830;41.876;23.474;2023-10-09T15:02:00;18.80;30.90
19389;DHT22;9830;41.876;23.474;2023-10-09T15:04:26;18.70;31.20
19389;DHT22;9830;41.876;23.474;2023-10-09T15:06:55;18.60;31.60
19389;DHT22;9830;41.876;23.474;2023-10-09T15:09:20;18.60;32.40
19389;DHT22;9830;41.876;23.474;2023-10-09T15:11:54;18.50;33.00
19389;DHT22;9830;41.876;23.474;2023-10-09T15:14:20;18.50;33.30
19389;DHT22;9830;41.876;23.474;2023-10-09T15:16:47;18.40;33.90
19389;DHT22;9830;41.876;23.474;2023-10-09T15:19:13;18.20;35.10
19389;DHT22;9830;41.876;23.474;2023-10-09T15:21:40;18.10;35.60
19389;DHT22;9830;41.876;23.474;2023-10-09T15:24:18;18.00;36.20
19389;DHT22;9830;41.876;23.474;2023-10-09T15:26:47;17.90;37.10
19389;DHT22;9830;41.876;23.474;2023-10-09T15:29:19;17.80;37.50
19389;DHT22;9830;41.876;23.474;2023-10-09T15:31:52;17.80;38.20
19389;DHT22;9830;41.876;23.474;2023-10-09T15:34:17;17.70;38.20
19389;DHT22;9830;41.876;23.474;2023-10-09T15:36:46;17.60;38.70
19389;DHT22;9830;41.876;23.474;2023-10-09T15:39:14;17.50;39.00
19389;DHT22;9830;41.876;23.474;2023-10-09T15:41:45;17.40;39.70
19389;DHT22;9830;41.876;23.474;2023-10-09T15:44:11;17.30;40.10
19389;DHT22;9830;41.876;23.474;2023-10-09T15:46:39;17.20;40.40
19389;DHT22;9830;41.876;23.474;2023-10-09T15:49:05;17.10;40.40
19389;DHT22;9830;41.876;23.474;2023-10-09T15:51:34;17.00;40.30
19389;DHT22;9830;41.876;23.474;2023-10-09T15:54:01;17.00;40.40
19389;DHT22;9830;41.876;23.474;2023-10-09T15:56:27;16.90;40.70
19389;DHT22;9830;41.876;23.474;2023-10-09T15:58:52;16.90;40.90
19389;DHT22;9830;41.876;23.474;2023-10-09T16:01:19;16.80;40.90
19389;DHT22;9830;41.876;23.474;2023-10-09T16:03:46;16.80;40.60
19389;DHT22;9830;41.876;23.474;2023-10-09T16:06:21;16.80;41.00
19389;DHT22;9830;41.876;23.474;2023-10-09T16:08:47;16.80;41.20
19389;DHT22;9830;41.876;23.474;2023-10-09T16:11:22;16.70;41.60
19389;DHT22;9830;41.876;23.474;2023-10-09T16:13:51;16.70;41.60
19389;DHT22;9830;41.876;23.474;2023-10-09T16:16:29;16.60;41.80
19389;DHT22;9830;41.876;23.474;2023-10-09T16:18:55;16.60;41.90
19389;DHT22;9830;41.876;23.474;2023-10-09T16:21:23;16.50;41.90
19389;DHT22;9830;41.876;23.474;2023-10-09T16:23:50;16.50;42.00
19389;DHT22;9830;41.876;23.474;2023-10-09T16:26:16;16.40;42.40
19389;DHT22;9830;41.876;23.474;2023-10-09T16:28:43;16.30;42.40
19389;DHT22;9830;41.876;23.474;2023-10-09T16:31:09;16.20;42.50
19389;DHT22;9830;41.876;23.474;2023-10-09T16:33:40;16.10;42.90
19389;DHT22;9830;41.876;23.474;2023-10-09T16:36:06;16.10;43.20
19389;DHT22;9830;41.876;23.474;2023-10-09T16:38:33;16.00;43.50
19389;DHT22;9830;41.876;23.474;2023-10-09T16:41:01;15.90;44.30
19389;DHT22;9830;41.876;23.474;2023-10-09T16:43:33;15.80;43.70
19389;DHT22;9830;41.876;23.474;2023-10-09T16:46:01;15.80;43.80
19389;DHT22;9830;41.876;23.474;2023-10-09T16:48:34;15.70;44.20
19389;DHT22;9830;41.876;23.474;2023-10-09T16:51:03;15.60;44.70
19389;DHT22;9830;41.876;23.474;2023-10-09T16:53:32;15.50;45.30
19389;DHT22;9830;41.876;23.474;2023-10-09T16:56:02;15.40;45.30
19389;DHT22;9830;41.876;23.474;2023-10-09T16:58:35;15.30;44.40
19389;DHT22;9830;41.876;23.474;2023-10-09T17:01:01;15.30;44.50
19389;DHT22;9830;41.876;23.474;2023-10-09T17:03:29;15.20;44.80
19389;DHT22;9830;41.876;23.474;2023-10-09T17:05:54;15.20;43.80
19389;DHT22;9830;41.876;23.474;2023-10-09T17:08:22;15.20;42.70
19389;DHT22;9830;41.876;23.474;2023-10-09T17:10:49;15.40;42.00
19389;DHT22;9830;41.876;23.474;2023-10-09T17:13:17;15.50;41.80
19389;DHT22;9830;41.876;23.474;2023-10-09T17:15:48;15.60;41.30
19389;DHT22;9830;41.876;23.474;2023-10-09T17:18:24;15.70;41.40
19389;DHT22;9830;41.876;23.474;2023-10-09T17:20:54;15.70;41.50
19389;DHT22;9830;41.876;23.474;2023-10-09T17:23:20;15.70;41.80
19389;DHT22;9830;41.876;23.474;2023-10-09T17:25:46;15.70;42.30
19389;DHT22;9830;41.876;23.474;2023-10-09T17:28:12;15.60;42.40
19389;DHT22;9830;41.876;23.474;2023-10-09T17:30:47;15.60;42.60
19389;DHT22;9830;41.876;23.474;2023-10-09T17:33:16;15.60;42.80
19389;DHT22;9830;41.876;23.474;2023-10-09T17:35:47;15.50;43.30
19389;DHT22;9830;41.876;23.474;2023-10-09T17:38:14;15.40;43.80
19389;DHT22;9830;41.876;23.474;2023-10-09T17:40:47;15.20;44.60
19389;DHT22;9830;41.876;23.474;2023-10-09T17:43:20;15.00;45.10
19389;DHT22;9830;41.876;23.474;2023-10-09T17:45:46;14.90;45.80
19389;DHT22;9830;41.876;23.474;2023-10-09T17:48:12;14.60;46.40
19389;DHT22;9830;41.876;23.474;2023-10-09T17:50:44;14.60;47.10
19389;DHT22;9830;41.876;23.474;2023-10-09T17:53:10;14.40;47.80
19389;DHT22;9830;41.876;23.474;2023-10-09T17:55:36;14.20;48.10
19389;DHT22;9830;41.876;23.474;2023-10-09T17:58:03;14.20;48.50
19389;DHT22;9830;41.876;23.474;2023-10-09T18:00:35;14.10;48.80
19389;DHT22;9830;41.876;23.474;2023-10-09T18:03:01;14.10;49.10
19389;DHT22;9830;41.876;23.474;2023-10-09T18:05:27;14.10;48.90
19389;DHT22;9830;41.876;23.474;2023-10-09T18:07:56;14.00;49.60
19389;DHT22;9830;41.876;23.474;2023-10-09T18:10:24;14.00;50.00
19389;DHT22;9830;41.876;23.474;2023-10-09T18:12:50;13.90;50.50
19389;DHT22;9830;41.876;23.474;2023-10-09T18:15:16;13.80;50.70
19389;DHT22;9830;41.876;23.474;2023-10-09T18:17:46;13.80;50.80
19389;DHT22;9830;41.876;23.474;2023-10-09T18:20:12;13.80;50.80
19389;DHT22;9830;41.876;23.474;2023-10-09T18:22:38;13.80;50.90
19389;DHT22;9830;41.876;23.474;2023-10-09T18:25:04;13.80;50.90
19389;DHT22;9830;41.876;23.474;2023-10-09T18:27:29;13.90;50.70
19389;DHT22;9830;41.876;23.474;2023-10-09T18:29:55;13.90;50.80
19389;DHT22;9830;41.876;23.474;2023-10-09T18:32:26;13.90;50.60
19389;DHT22;9830;41.876;23.474;2023-10-09T18:34:51;14.00;50.30
19389;DHT22;9830;41.876;23.474;2023-10-09T18:37:18;14.00;50.70
19389;DHT22;9830;41.876;23.474;2023-10-09T18:39:47;14.00;50.80
19389;DHT22;9830;41.876;23.474;2023-10-09T18:42:13;14.00;50.40
19389;DHT22;9830;41.876;23.474;2023-10-09T18:44:39;14.00;50.30
19389;DHT22;9830;41.876;23.474;2023-10-09T18:47:08;14.00;50.70
19389;DHT22;9830;41.876;23.474;2023-10-09T18:49:34;13.90;52.60
19389;DHT22;9830;41.876;23.474;2023-10-09T18:52:03;13.90;52.10
19389;DHT22;9830;41.876;23.474;2023-10-09T18:54:32;13.80;52.30
19389;DHT22;9830;41.876;23.474;2023-10-09T18:57:02;13.70;52.90
19389;DHT22;9830;41.876;23.474;2023-10-09T18:59:31;13.60;53.90